This is the latest recevied weather packets stored in our database for station/object GW1597. If no packets are shown the sender has not sent any weather packets the latest 10 day(s).
| Time | Temp. | Humidity | Pressure | Rain* | Wind** | Luminosity | Snow |
|---|---|---|---|---|---|---|---|
| 1777313213 | 26.11° C | 47% | 991.1 hPa | 0 mm | - | - | - |
| 1777307091 | 22.22° C | 56% | 992.8 hPa | 0 mm | - | - | - |
| 1777305250 | 21.67° C | 55% | 992.8 hPa | 0 mm | - | - | - |
| 1777303133 | 20° C | 57% | 993.2 hPa | 0 mm | - | - | - |
| 1777302731 | 20° C | 58% | 993.2 hPa | 0 mm | - | - | - |
| 1777301295 | 18.89° C | 62% | 993.5 hPa | 0 mm | - | - | - |
| 1777300948 | 18.89° C | 63% | 993.5 hPa | 0 mm | - | - | - |
| 1777300590 | 18.89° C | 63% | 993.5 hPa | 0 mm | - | - | - |
| 1777297734 | 16.67° C | 69% | 993.9 hPa | 0 mm | - | - | - |
| 1777297359 | 16.11° C | 71% | 993.5 hPa | 0 mm | - | - | - |
| 1777296286 | 15° C | 74% | 993.9 hPa | 0 mm | - | - | - |
| 1777295563 | 13.89° C | 80% | 993.9 hPa | 0 mm | - | - | - |
| 1777291238 | - | - | 994.2 hPa | 0 mm | - | - | - |
| 1777289802 | - | - | 994.2 hPa | 0 mm | - | - | - |
| 1777285834 | 8.33° C | 96% | 993.9 hPa | 0 mm | - | - | - |
| 1777283679 | 8.89° C | 96% | 993.2 hPa | 0 mm | - | - | - |
| 1777278630 | 8.89° C | 96% | 992.2 hPa | 0 mm | - | - | - |
| 1777276462 | 8.89° C | 96% | 991.8 hPa | 0 mm | - | - | - |
| 1777274670 | 8.89° C | 95% | 991.8 hPa | 0 mm | - | - | - |
| 1777274310 | 8.89° C | 95% | 992.2 hPa | 0 mm | - | - | - |
| 1777273610 | 8.89° C | 95% | 992.2 hPa | 0 mm | - | - | - |
| 1777271065 | 10° C | 95% | 991.8 hPa | 0 mm | - | - | - |
| 1777270357 | 10° C | 95% | 992.2 hPa | 0 mm | - | - | - |
| 1777269979 | 10° C | 95% | 992.2 hPa | 0 mm | - | - | - |
| 1777269623 | 10° C | 95% | 992.2 hPa | 0 mm | - | - | - |
* Rain since midnight (hover to see other rain measurements)
** Current wind speed in m/s (hover to see current wind gust speed)